sensor_id;sensor_type;location;lat;lon;timestamp;pressure;altitude;pressure_sealevel;temperature;humidity
33506;BME280;19843;51.040;13.782;2022-10-16T00:01:16;38511.16;;;14.18;100.00
33506;BME280;19843;51.040;13.782;2022-10-16T00:03:46;37838.56;;;14.22;100.00
33506;BME280;19843;51.040;13.782;2022-10-16T00:06:14;37837.91;;;14.21;100.00
33506;BME280;19843;51.040;13.782;2022-10-16T00:08:42;37834.34;;;14.15;100.00
33506;BME280;19843;51.040;13.782;2022-10-16T00:11:11;37502.59;;;14.24;100.00
33506;BME280;19843;51.040;13.782;2022-10-16T00:13:42;37499.38;;;14.19;100.00
33506;BME280;19843;51.040;13.782;2022-10-16T00:16:11;36827.53;;;14.24;100.00
33506;BME280;19843;51.040;13.782;2022-10-16T00:18:39;36157.88;;;14.33;100.00
33506;BME280;19843;51.040;13.782;2022-10-16T00:21:09;36152.59;;;14.24;100.00
33506;BME280;19843;51.040;13.782;2022-10-16T00:23:37;36151.66;;;14.23;100.00
33506;BME280;19843;51.040;13.782;2022-10-16T00:26:07;35817.94;;;14.29;100.00
33506;BME280;19843;51.040;13.782;2022-10-16T00:28:36;35481.47;;;14.30;100.00
33506;BME280;19843;51.040;13.782;2022-10-16T00:31:07;35145.88;;;14.33;100.00
33506;BME280;19843;51.040;13.782;2022-10-16T00:33:36;35143.47;;;14.29;100.00
33506;BME280;19843;51.040;13.782;2022-10-16T00:36:05;35474.75;;;14.19;100.00
33506;BME280;19843;51.040;13.782;2022-10-16T00:38:33;34477.16;;;14.44;100.00
33506;BME280;19843;51.040;13.782;2022-10-16T00:41:01;34807.94;;;14.32;100.00
33506;BME280;19843;51.040;13.782;2022-10-16T00:43:38;34476.56;;;14.43;100.00
33506;BME280;19843;51.040;13.782;2022-10-16T00:46:13;34805.53;;;14.28;100.00
33506;BME280;19843;51.040;13.782;2022-10-16T00:48:45;34802.22;;;14.23;100.00
33506;BME280;19843;51.040;13.782;2022-10-16T00:51:14;34801.34;;;14.21;100.00
33506;BME280;19843;51.040;13.782;2022-10-16T00:53:42;35464.97;;;14.03;100.00
33506;BME280;19843;51.040;13.782;2022-10-16T00:56:10;35128.97;;;14.05;100.00
33506;BME280;19843;51.040;13.782;2022-10-16T00:58:37;35122.00;;;13.93;100.00
33506;BME280;19843;51.040;13.782;2022-10-16T01:01:05;35119.28;;;13.89;100.00
33506;BME280;19843;51.040;13.782;2022-10-16T01:03:36;34450.13;;;13.98;100.00
33506;BME280;19843;51.040;13.782;2022-10-16T01:06:12;34784.25;;;13.92;100.00
33506;BME280;19843;51.040;13.782;2022-10-16T01:08:49;34449.22;;;13.96;100.00
33506;BME280;19843;51.040;13.782;2022-10-16T01:11:27;34110.97;;;13.94;100.00
33506;BME280;19843;51.040;13.782;2022-10-16T01:14:00;33780.03;;;14.05;100.00
33506;BME280;19843;51.040;13.782;2022-10-16T01:16:34;34108.31;;;13.89;100.00
33506;BME280;19843;51.040;13.782;2022-10-16T01:19:09;33437.50;;;13.95;100.00
33506;BME280;19843;51.040;13.782;2022-10-16T01:21:41;33439.50;;;13.99;100.00
33506;BME280;19843;51.040;13.782;2022-10-16T01:24:17;33103.06;;;14.00;100.00
33506;BME280;19843;51.040;13.782;2022-10-16T01:27:04;32435.31;;;14.11;100.00
33506;BME280;19843;51.040;13.782;2022-10-16T01:29:34;32103.34;;;14.20;100.00
33506;BME280;19843;51.040;13.782;2022-10-16T01:32:09;32103.34;;;14.20;100.00
33506;BME280;19843;51.040;13.782;2022-10-16T01:34:42;31766.63;;;14.20;100.00
33506;BME280;19843;51.040;13.782;2022-10-16T01:37:16;31769.38;;;14.25;100.00
33506;BME280;19843;51.040;13.782;2022-10-16T01:39:46;31100.56;;;14.35;100.00
33506;BME280;19843;51.040;13.782;2022-10-16T01:42:21;31100.56;;;14.35;100.00
33506;BME280;19843;51.040;13.782;2022-10-16T01:44:51;30765.47;;;14.38;100.00
33506;BME280;19843;51.040;13.782;2022-10-16T01:47:22;30764.69;;;14.37;100.00
33506;BME280;19843;51.040;13.782;2022-10-16T01:49:52;30767.09;;;14.42;100.00
33506;BME280;19843;51.040;13.782;2022-10-16T01:52:23;30095.78;;;14.47;100.00
33506;BME280;19843;51.040;13.782;2022-10-16T01:54:56;30431.16;;;14.44;100.00
33506;BME280;19843;51.040;13.782;2022-10-16T01:57:27;30431.69;;;14.45;100.00
33506;BME280;19843;51.040;13.782;2022-10-16T02:00:00;30095.78;;;14.47;100.00
33506;BME280;19843;51.040;13.782;2022-10-16T02:02:30;30095.28;;;14.46;100.00
33506;BME280;19843;51.040;13.782;2022-10-16T02:05:04;30098.41;;;14.52;100.00
33506;BME280;19843;51.040;13.782;2022-10-16T02:07:34;29764.81;;;14.58;100.00
33506;BME280;19843;51.040;13.782;2022-10-16T02:10:02;29766.09;;;14.61;100.00
33506;BME280;19843;51.040;13.782;2022-10-16T02:12:33;29435.25;;;14.73;100.00
33506;BME280;19843;51.040;13.782;2022-10-16T02:15:03;29100.28;;;14.77;100.00
33506;BME280;19843;51.040;13.782;2022-10-16T02:17:31;29440.38;;;14.83;100.00
33506;BME280;19843;51.040;13.782;2022-10-16T02:19:59;29443.94;;;14.90;100.00
33506;BME280;19843;51.040;13.782;2022-10-16T02:22:30;29448.28;;;14.99;100.00
33506;BME280;19843;51.040;13.782;2022-10-16T02:25:02;29783.16;;;14.94;100.00
33506;BME280;19843;51.040;13.782;2022-10-16T02:27:38;30121.63;;;14.97;100.00
33506;BME280;19843;51.040;13.782;2022-10-16T02:30:13;30463.34;;;15.05;100.00
33506;BME280;19843;51.040;13.782;2022-10-16T02:32:43;30800.94;;;15.06;100.00
33506;BME280;19843;51.040;13.782;2022-10-16T02:35:13;31472.41;;;15.00;100.00
33506;BME280;19843;51.040;13.782;2022-10-16T02:37:41;31478.41;;;15.11;100.00
33506;BME280;19843;51.040;13.782;2022-10-16T02:40:10;32151.38;;;15.07;100.00
33506;BME280;19843;51.040;13.782;2022-10-16T02:42:40;32823.28;;;15.02;100.00
33506;BME280;19843;51.040;13.782;2022-10-16T02:45:10;32829.25;;;15.12;100.00
33506;BME280;19843;51.040;13.782;2022-10-16T02:47:38;32495.03;;;15.18;100.00
33506;BME280;19843;51.040;13.782;2022-10-16T02:50:06;33171.69;;;15.21;100.00
33506;BME280;19843;51.040;13.782;2022-10-16T02:52:33;33843.88;;;15.15;100.00
33506;BME280;19843;51.040;13.782;2022-10-16T02:55:01;34514.56;;;15.07;100.00
33506;BME280;19843;51.040;13.782;2022-10-16T02:57:29;34516.34;;;15.10;100.00
33506;BME280;19843;51.040;13.782;2022-10-16T02:59:59;34178.94;;;15.11;100.00
33506;BME280;19843;51.040;13.782;2022-10-16T03:02:26;34517.25;;;15.12;100.00
33506;BME280;19843;51.040;13.782;2022-10-16T03:04:54;34524.38;;;15.24;100.00
33506;BME280;19843;51.040;13.782;2022-10-16T03:07:21;34526.16;;;15.27;100.00
33506;BME280;19843;51.040;13.782;2022-10-16T03:09:49;35204.91;;;15.32;100.00
33506;BME280;19843;51.040;13.782;2022-10-16T03:12:17;35872.50;;;15.18;100.00
33506;BME280;19843;51.040;13.782;2022-10-16T03:14:44;36205.78;;;15.11;100.00
33506;BME280;19843;51.040;13.782;2022-10-16T03:17:13;35868.19;;;15.11;100.00
33506;BME280;19843;51.040;13.782;2022-10-16T03:19:43;36209.50;;;15.17;100.00
33506;BME280;19843;51.040;13.782;2022-10-16T03:22:10;35874.97;;;15.23;100.00
33506;BME280;19843;51.040;13.782;2022-10-16T03:24:38;36551.22;;;15.23;100.00
33506;BME280;19843;51.040;13.782;2022-10-16T03:27:05;36888.31;;;15.21;100.00
33506;BME280;19843;51.040;13.782;2022-10-16T03:29:33;37555.75;;;15.08;100.00
33506;BME280;19843;51.040;13.782;2022-10-16T03:32:00;37553.50;;;15.04;100.00
33506;BME280;19843;51.040;13.782;2022-10-16T03:34:30;37219.31;;;15.10;100.00
33506;BME280;19843;51.040;13.782;2022-10-16T03:36:57;36879.44;;;15.07;100.00
33506;BME280;19843;51.040;13.782;2022-10-16T03:39:25;37211.03;;;14.97;100.00
33506;BME280;19843;51.040;13.782;2022-10-16T03:41:53;36535.22;;;14.97;100.00
33506;BME280;19843;51.040;13.782;2022-10-16T03:44:20;36531.44;;;14.91;100.00
33506;BME280;19843;51.040;13.782;2022-10-16T03:46:48;35861.09;;;15.00;100.00
33506;BME280;19843;51.040;13.782;2022-10-16T03:49:15;35866.34;;;15.08;100.00
33506;BME280;19843;51.040;13.782;2022-10-16T03:51:44;36199.25;;;15.00;100.00
33506;BME280;19843;51.040;13.782;2022-10-16T03:54:12;35866.34;;;15.08;100.00
33506;BME280;19843;51.040;13.782;2022-10-16T03:56:39;35860.78;;;14.99;100.00
33506;BME280;19843;51.040;13.782;2022-10-16T03:59:07;35191.91;;;15.10;100.00
33506;BME280;19843;51.040;13.782;2022-10-16T04:01:34;35870.03;;;15.14;100.00
33506;BME280;19843;51.040;13.782;2022-10-16T04:04:02;35867.56;;;15.10;100.00
33506;BME280;19843;51.040;13.782;2022-10-16T04:06:29;36537.75;;;15.01;100.00
33506;BME280;19843;51.040;13.782;2022-10-16T04:08:58;36534.28;;;14.96;100.00
33506;BME280;19843;51.040;13.782;2022-10-16T04:11:26;36866.78;;;14.87;100.00
33506;BME280;19843;51.040;13.782;2022-10-16T04:13:53;36527.69;;;14.85;100.00
33506;BME280;19843;51.040;13.782;2022-10-16T04:16:21;35858.31;;;14.95;100.00
33506;BME280;19843;51.040;13.782;2022-10-16T04:18:48;35854.00;;;14.88;100.00
33506;BME280;19843;51.040;13.782;2022-10-16T04:21:16;35512.59;;;14.82;100.00
33506;BME280;19843;51.040;13.782;2022-10-16T04:23:43;35846.00;;;14.75;100.00
33506;BME280;19843;51.040;13.782;2022-10-16T04:26:12;35508.34;;;14.75;100.00
33506;BME280;19843;51.040;13.782;2022-10-16T04:28:40;35173.44;;;14.79;100.00
33506;BME280;19843;51.040;13.782;2022-10-16T04:31:07;34166.28;;;14.89;100.00
33506;BME280;19843;51.040;13.782;2022-10-16T04:33:35;34503.88;;;14.89;100.00
33506;BME280;19843;51.040;13.782;2022-10-16T04:36:03;34168.63;;;14.93;100.00
33506;BME280;19843;51.040;13.782;2022-10-16T04:38:31;34170.97;;;14.97;100.00
33506;BME280;19843;51.040;13.782;2022-10-16T04:40:59;35179.19;;;14.89;100.00
33506;BME280;19843;51.040;13.782;2022-10-16T04:43:28;34837.00;;;14.82;100.00
33506;BME280;19843;51.040;13.782;2022-10-16T04:45:55;34503.88;;;14.89;100.00
33506;BME280;19843;51.040;13.782;2022-10-16T04:48:23;35506.50;;;14.72;100.00
33506;BME280;19843;51.040;13.782;2022-10-16T04:50:50;35168.91;;;14.72;100.00
33506;BME280;19843;51.040;13.782;2022-10-16T04:53:20;34833.13;;;14.75;100.00
33506;BME280;19843;51.040;13.782;2022-10-16T04:55:48;35167.09;;;14.69;100.00
33506;BME280;19843;51.040;13.782;2022-10-16T04:58:16;35165.56;;;14.66;100.00
33506;BME280;19843;51.040;13.782;2022-10-16T05:00:45;34831.91;;;14.73;100.00
33506;BME280;19843;51.040;13.782;2022-10-16T05:03:13;34830.72;;;14.71;100.00
33506;BME280;19843;51.040;13.782;2022-10-16T05:05:42;34497.34;;;14.78;100.00
33506;BME280;19843;51.040;13.782;2022-10-16T05:08:10;34160.41;;;14.79;100.00
33506;BME280;19843;51.040;13.782;2022-10-16T05:10:37;34498.81;;;14.80;100.00
33506;BME280;19843;51.040;13.782;2022-10-16T05:13:04;34499.13;;;14.81;100.00
33506;BME280;19843;51.040;13.782;2022-10-16T05:15:32;34498.81;;;14.80;100.00
33506;BME280;19843;51.040;13.782;2022-10-16T05:18:01;34831.91;;;14.73;100.00
33506;BME280;19843;51.040;13.782;2022-10-16T05:20:29;34499.72;;;14.82;100.00
33506;BME280;19843;51.040;13.782;2022-10-16T05:22:56;34831.91;;;14.73;100.00
33506;BME280;19843;51.040;13.782;2022-10-16T05:25:24;34501.22;;;14.85;100.00
33506;BME280;19843;51.040;13.782;2022-10-16T05:27:51;34169.81;;;14.95;100.00
33506;BME280;19843;51.040;13.782;2022-10-16T05:30:19;34838.22;;;14.84;100.00
33506;BME280;19843;51.040;13.782;2022-10-16T05:32:47;34842.72;;;14.91;100.00
33506;BME280;19843;51.040;13.782;2022-10-16T05:35:17;35513.22;;;14.83;100.00
33506;BME280;19843;51.040;13.782;2022-10-16T05:37:45;35173.75;;;14.80;100.00
33506;BME280;19843;51.040;13.782;2022-10-16T05:40:14;35507.72;;;14.74;100.00
33506;BME280;19843;51.040;13.782;2022-10-16T05:42:42;35508.03;;;14.74;100.00
33506;BME280;19843;51.040;13.782;2022-10-16T05:45:10;35171.91;;;14.77;100.00
33506;BME280;19843;51.040;13.782;2022-10-16T05:47:39;34831.31;;;14.72;100.00
33506;BME280;19843;51.040;13.782;2022-10-16T05:50:07;35170.72;;;14.75;100.00
33506;BME280;19843;51.040;13.782;2022-10-16T05:52:36;34837.00;;;14.82;100.00
33506;BME280;19843;51.040;13.782;2022-10-16T05:55:04;34499.41;;;14.82;100.00
33506;BME280;19843;51.040;13.782;2022-10-16T05:57:32;34502.69;;;14.87;100.00
33506;BME280;19843;51.040;13.782;2022-10-16T05:59:59;34494.38;;;14.73;100.00
33506;BME280;19843;51.040;13.782;2022-10-16T06:02:27;34499.72;;;14.82;100.00
33506;BME280;19843;51.040;13.782;2022-10-16T06:04:54;33163.41;;;15.06;100.00
33506;BME280;19843;51.040;13.782;2022-10-16T06:07:22;33840.97;;;15.10;100.00
33506;BME280;19843;51.040;13.782;2022-10-16T06:09:52;33850.28;;;15.27;100.00
33506;BME280;19843;51.040;13.782;2022-10-16T06:12:20;34192.19;;;15.34;100.00
33506;BME280;19843;51.040;13.782;2022-10-16T06:14:48;35206.44;;;15.35;100.00
33506;BME280;19843;51.040;13.782;2022-10-16T06:17:15;36220.38;;;15.35;100.00
33506;BME280;19843;51.040;13.782;2022-10-16T06:19:43;36891.78;;;15.27;100.00
33506;BME280;19843;51.040;13.782;2022-10-16T06:22:11;36893.38;;;15.30;100.00
33506;BME280;19843;51.040;13.782;2022-10-16T06:24:38;36895.28;;;15.33;100.00
33506;BME280;19843;51.040;13.782;2022-10-16T06:27:07;36904.78;;;15.48;100.00
33506;BME280;19843;51.040;13.782;2022-10-16T06:29:34;37239.78;;;15.43;100.00
33506;BME280;19843;51.040;13.782;2022-10-16T06:32:02;37244.25;;;15.50;100.00
33506;BME280;19843;51.040;13.782;2022-10-16T06:34:29;37586.03;;;15.55;100.00
33506;BME280;19843;51.040;13.782;2022-10-16T06:36:57;37929.88;;;15.64;100.00
33506;BME280;19843;51.040;13.782;2022-10-16T06:39:24;39282.28;;;15.62;100.00
33506;BME280;19843;51.040;13.782;2022-10-16T06:41:52;39621.81;;;15.63;100.00
33506;BME280;19843;51.040;13.782;2022-10-16T06:44:21;39959.34;;;15.62;100.00
33506;BME280;19843;51.040;13.782;2022-10-16T06:46:48;39291.03;;;15.75;100.00
33506;BME280;19843;51.040;13.782;2022-10-16T06:49:16;38964.47;;;15.93;100.00
33506;BME280;19843;51.040;13.782;2022-10-16T06:51:48;39307.84;;;16.00;100.00
33506;BME280;19843;51.040;13.782;2022-10-16T06:54:16;39661.50;;;16.23;100.00
33506;BME280;19843;51.040;13.782;2022-10-16T06:56:44;40684.13;;;16.31;100.00
33506;BME280;19843;51.040;13.782;2022-10-16T06:59:12;42050.88;;;16.46;100.00
33506;BME280;19843;51.040;13.782;2022-10-16T07:01:40;44089.13;;;16.49;100.00
33506;BME280;19843;51.040;13.782;2022-10-16T07:04:08;46478.78;;;16.65;100.00
33506;BME280;19843;51.040;13.782;2022-10-16T07:06:35;48856.44;;;16.63;100.00
33506;BME280;19843;51.040;13.782;2022-10-16T07:09:05;51241.25;;;16.68;100.00
33506;BME280;19843;51.040;13.782;2022-10-16T07:11:33;52593.25;;;16.57;100.00
33506;BME280;19843;51.040;13.782;2022-10-16T07:14:01;53955.88;;;16.58;100.00
33506;BME280;19843;51.040;13.782;2022-10-16T07:16:30;54299.59;;;16.62;100.00
33506;BME280;19843;51.040;13.782;2022-10-16T07:19:01;54629.06;;;16.50;100.00
33506;BME280;19843;51.040;13.782;2022-10-16T07:21:30;52940.38;;;16.65;100.00
33506;BME280;19843;51.040;13.782;2022-10-16T07:24:02;53283.97;;;16.68;100.00
33506;BME280;19843;51.040;13.782;2022-10-16T07:26:33;54662.84;;;16.86;100.00
33506;BME280;19843;51.040;13.782;2022-10-16T07:29:01;54670.25;;;16.95;100.00
33506;BME280;19843;51.040;13.782;2022-10-16T07:31:29;55010.56;;;16.94;100.00
33506;BME280;19843;51.040;13.782;2022-10-16T07:33:59;55005.44;;;16.88;100.00
33506;BME280;19843;51.040;13.782;2022-10-16T07:36:27;54669.78;;;16.94;100.00
33506;BME280;19843;51.040;13.782;2022-10-16T07:38:55;56030.75;;;16.92;100.00
33506;BME280;19843;51.040;13.782;2022-10-16T07:41:26;56366.41;;;16.86;100.00
33506;BME280;19843;51.040;13.782;2022-10-16T07:43:54;56024.09;;;16.84;100.00
33506;BME280;19843;51.040;13.782;2022-10-16T07:46:22;56025.53;;;16.86;100.00
33506;BME280;19843;51.040;13.782;2022-10-16T07:48:50;55687.03;;;16.88;100.00
33506;BME280;19843;51.040;13.782;2022-10-16T07:51:21;55689.88;;;16.92;100.00
33506;BME280;19843;51.040;13.782;2022-10-16T07:53:49;55352.78;;;16.96;100.00
33506;BME280;19843;51.040;13.782;2022-10-16T07:56:18;55361.66;;;17.05;100.00
33506;BME280;19843;51.040;13.782;2022-10-16T07:58:46;55024.97;;;17.10;100.00
33506;BME280;19843;51.040;13.782;2022-10-16T08:01:16;55719.06;;;17.23;100.00
33506;BME280;19843;51.040;13.782;2022-10-16T08:03:46;54363.50;;;17.32;100.00
33506;BME280;19843;51.040;13.782;2022-10-16T08:06:14;54377.75;;;17.48;100.00
33506;BME280;19843;51.040;13.782;2022-10-16T08:08:43;59515.13;;;17.66;100.00
33506;BME280;19843;51.040;13.782;2022-10-16T08:11:10;65339.03;;;17.76;100.00
33506;BME280;19843;51.040;13.782;2022-10-16T08:13:37;70157.38;;;17.96;100.00
33506;BME280;19843;51.040;13.782;2022-10-16T08:16:05;76348.16;;;18.06;100.00
33506;BME280;19843;51.040;13.782;2022-10-16T08:18:34;82183.91;;;17.99;100.00
33506;BME280;19843;51.040;13.782;2022-10-16T08:21:03;89422.06;;;18.02;100.00
33506;BME280;19843;51.040;13.782;2022-10-16T08:23:32;85621.59;;;17.96;100.00
33506;BME280;19843;51.040;13.782;2022-10-16T08:26:05;84584.19;;;17.93;100.00
33506;BME280;19843;51.040;13.782;2022-10-16T08:28:33;88725.72;;;17.98;100.00
33506;BME280;19843;51.040;13.782;2022-10-16T08:31:08;90118.59;;;18.07;100.00
33506;BME280;19843;51.040;13.782;2022-10-16T08:33:36;92208.88;;;18.20;100.00
33506;BME280;19843;51.040;13.782;2022-10-16T08:36:04;93945.63;;;18.27;100.00
33506;BME280;19843;51.040;13.782;2022-10-16T08:38:32;100204.88;;;18.48;100.00
33506;BME280;19843;51.040;13.782;2022-10-16T08:41:15;106818.69;;;18.66;100.00
33506;BME280;19843;51.040;13.782;2022-10-16T08:43:59;115161.41;;;18.69;100.00
33506;BME280;19843;51.040;13.782;2022-10-16T08:46:38;120070.66;;;18.88;100.00
33506;BME280;19843;51.040;13.782;2022-10-16T08:49:16;126374.19;;;19.01;100.00
33506;BME280;19843;51.040;13.782;2022-10-16T08:51:44;129523.56;;;19.04;100.00
33506;BME280;19843;51.040;13.782;2022-10-16T08:54:21;138961.31;;;19.01;100.00
33506;BME280;19843;51.040;13.782;2022-10-16T08:56:54;146695.78;;;19.09;100.00
33506;BME280;19843;51.040;13.782;2022-10-16T08:59:21;154853.88;;;19.38;100.00
33506;BME280;19843;51.040;13.782;2022-10-16T09:01:50;154892.81;;;19.54;100.00
33506;BME280;19843;51.040;13.782;2022-10-16T09:07:17;154822.75;;;19.26;100.00
33506;BME280;19843;51.040;13.782;2022-10-16T09:09:55;154885.06;;;19.51;100.00
33506;BME280;19843;51.040;13.782;2022-10-16T09:12:33;154874.66;;;19.47;100.00
33506;BME280;19843;51.040;13.782;2022-10-16T09:15:14;154869.50;;;19.45;100.00
33506;BME280;19843;51.040;13.782;2022-10-16T09:17:50;154874.66;;;19.47;100.00
33506;BME280;19843;51.040;13.782;2022-10-16T09:20:26;154948.56;;;19.75;100.00
33506;BME280;19843;51.040;13.782;2022-10-16T09:23:10;154983.56;;;19.89;100.00
33506;BME280;19843;51.040;13.782;2022-10-16T09:25:39;155061.41;;;20.19;100.00
33506;BME280;19843;51.040;13.782;2022-10-16T09:28:10;155053.59;;;20.16;100.00
33506;BME280;19843;51.040;13.782;2022-10-16T09:30:38;155066.56;;;20.21;100.00
33506;BME280;19843;51.040;13.782;2022-10-16T09:33:07;155048.44;;;20.14;100.00
33506;BME280;19843;51.040;13.782;2022-10-16T09:35:38;155043.22;;;20.12;100.00
33506;BME280;19843;51.040;13.782;2022-10-16T09:38:06;155032.88;;;20.08;100.00
33506;BME280;19843;51.040;13.782;2022-10-16T09:40:36;155032.88;;;20.08;100.00
33506;BME280;19843;51.040;13.782;2022-10-16T09:43:19;155040.63;;;20.11;100.00
33506;BME280;19843;51.040;13.782;2022-10-16T09:45:55;155086.03;;;20.29;100.00
33506;BME280;19843;51.040;13.782;2022-10-16T09:48:25;155086.03;;;20.29;100.00
33506;BME280;19843;51.040;13.782;2022-10-16T09:50:59;155126.31;;;20.45;100.00
33506;BME280;19843;51.040;13.782;2022-10-16T09:53:38;155144.44;;;20.52;100.00
33506;BME280;19843;51.040;13.782;2022-10-16T09:56:06;155144.44;;;20.52;100.00
33506;BME280;19843;51.040;13.782;2022-10-16T09:58:43;155176.88;;;20.64;100.00
33506;BME280;19843;51.040;13.782;2022-10-16T10:01:16;155187.25;;;20.69;100.00
33506;BME280;19843;51.040;13.782;2022-10-16T10:03:44;155224.84;;;20.83;100.00
33506;BME280;19843;51.040;13.782;2022-10-16T10:06:18;155298.84;;;21.12;100.00
33506;BME280;19843;51.040;13.782;2022-10-16T10:09:00;155327.44;;;21.23;100.00
33506;BME280;19843;51.040;13.782;2022-10-16T10:11:40;155343.03;;;21.29;100.00
33506;BME280;19843;51.040;13.782;2022-10-16T10:14:31;155358.63;;;21.35;100.00
33506;BME280;19843;51.040;13.782;2022-10-16T10:17:10;155344.34;;;21.30;100.00
33506;BME280;19843;51.040;13.782;2022-10-16T10:19:39;155326.16;;;21.23;100.00
33506;BME280;19843;51.040;13.782;2022-10-16T10:22:17;155331.38;;;21.25;100.00
33506;BME280;19843;51.040;13.782;2022-10-16T10:24:55;155320.94;;;21.21;100.00
33506;BME280;19843;51.040;13.782;2022-10-16T10:27:26;155328.75;;;21.24;100.00
33506;BME280;19843;51.040;13.782;2022-10-16T10:30:05;155326.16;;;21.23;100.00
33506;BME280;19843;51.040;13.782;2022-10-16T10:32:46;155313.19;;;21.18;100.00
33506;BME280;19843;51.040;13.782;2022-10-16T10:35:22;155319.69;;;21.20;100.00
33506;BME280;19843;51.040;13.782;2022-10-16T10:37:59;155332.66;;;21.25;100.00
33506;BME280;19843;51.040;13.782;2022-10-16T10:40:39;155337.81;;;21.27;100.00
33506;BME280;19843;51.040;13.782;2022-10-16T10:43:18;155362.47;;;21.37;100.00
33506;BME280;19843;51.040;13.782;2022-10-16T10:45:52;155394.94;;;21.49;100.00
33506;BME280;19843;51.040;13.782;2022-10-16T10:48:31;155454.69;;;21.73;100.00
33506;BME280;19843;51.040;13.782;2022-10-16T10:51:10;155544.31;;;22.08;100.00
33506;BME280;19843;51.040;13.782;2022-10-16T10:53:45;155563.81;;;22.15;100.00
33506;BME280;19843;51.040;13.782;2022-10-16T10:56:26;155617.06;;;22.36;100.00
33506;BME280;19843;51.040;13.782;2022-10-16T10:59:20;155650.81;;;22.49;100.00
33506;BME280;19843;51.040;13.782;2022-10-16T11:01:55;155708.03;;;22.71;100.00
33506;BME280;19843;51.040;13.782;2022-10-16T11:04:42;155714.50;;;22.74;100.00
33506;BME280;19843;51.040;13.782;2022-10-16T11:07:19;155700.16;;;22.68;100.00
33506;BME280;19843;51.040;13.782;2022-10-16T11:09:51;155672.88;;;22.58;100.00
33506;BME280;19843;51.040;13.782;2022-10-16T11:12:22;155669.00;;;22.56;100.00
33506;BME280;19843;51.040;13.782;2022-10-16T11:14:58;155648.19;;;22.48;100.00
33506;BME280;19843;51.040;13.782;2022-10-16T11:17:31;155601.47;;;22.30;100.00
33506;BME280;19843;51.040;13.782;2022-10-16T11:20:04;155620.91;;;22.38;100.00
33506;BME280;19843;51.040;13.782;2022-10-16T11:22:43;155618.31;;;22.37;100.00
33506;BME280;19843;51.040;13.782;2022-10-16T11:25:14;155658.63;;;22.52;100.00
33506;BME280;19843;51.040;13.782;2022-10-16T11:27:45;155732.69;;;22.81;100.00
33506;BME280;19843;51.040;13.782;2022-10-16T11:30:19;155739.22;;;22.84;100.00
33506;BME280;19843;51.040;13.782;2022-10-16T11:33:00;155719.69;;;22.76;100.00
33506;BME280;19843;51.040;13.782;2022-10-16T11:35:38;155658.63;;;22.52;100.00
33506;BME280;19843;51.040;13.782;2022-10-16T11:38:14;155657.31;;;22.52;100.00
33506;BME280;19843;51.040;13.782;2022-10-16T11:40:47;155661.19;;;22.53;100.00
33506;BME280;19843;51.040;13.782;2022-10-16T11:43:21;155627.44;;;22.40;100.00
33506;BME280;19843;51.040;13.782;2022-10-16T11:45:54;155643.03;;;22.46;100.00
33506;BME280;19843;51.040;13.782;2022-10-16T11:48:30;155676.78;;;22.59;100.00
33506;BME280;19843;51.040;13.782;2022-10-16T11:51:05;155704.06;;;22.70;100.00
33506;BME280;19843;51.040;13.782;2022-10-16T11:53:42;155705.38;;;22.70;100.00
33506;BME280;19843;51.040;13.782;2022-10-16T11:56:13;155692.38;;;22.65;100.00
33506;BME280;19843;51.040;13.782;2022-10-16T11:58:52;155804.16;;;23.09;100.00
33506;BME280;19843;51.040;13.782;2022-10-16T12:01:26;155901.72;;;23.47;100.00
33506;BME280;19843;51.040;13.782;2022-10-16T12:04:06;155840.53;;;23.23;100.00
33506;BME280;19843;51.040;13.782;2022-10-16T12:06:43;155758.69;;;22.91;100.00
33506;BME280;19843;51.040;13.782;2022-10-16T12:09:16;155645.59;;;22.47;100.00
33506;BME280;19843;51.040;13.782;2022-10-16T12:11:47;155614.44;;;22.35;100.00
33506;BME280;19843;51.040;13.782;2022-10-16T12:14:21;155609.22;;;22.33;100.00
33506;BME280;19843;51.040;13.782;2022-10-16T12:16:54;155670.31;;;22.57;100.00
33506;BME280;19843;51.040;13.782;2022-10-16T12:19:25;155709.31;;;22.72;100.00
33506;BME280;19843;51.040;13.782;2022-10-16T12:21:55;155747.00;;;22.87;100.00
33506;BME280;19843;51.040;13.782;2022-10-16T12:24:35;155734.00;;;22.82;100.00
33506;BME280;19843;51.040;13.782;2022-10-16T12:27:05;155706.72;;;22.71;100.00
33506;BME280;19843;51.040;13.782;2022-10-16T12:29:36;155702.75;;;22.69;100.00
33506;BME280;19843;51.040;13.782;2022-10-16T12:32:18;155671.63;;;22.57;100.00
33506;BME280;19843;51.040;13.782;2022-10-16T12:35:19;155679.38;;;22.60;100.00
33506;BME280;19843;51.040;13.782;2022-10-16T12:37:48;155654.72;;;22.51;100.00
33506;BME280;19843;51.040;13.782;2022-10-16T12:40:25;155630.03;;;22.41;100.00
33506;BME280;19843;51.040;13.782;2022-10-16T12:42:54;155650.81;;;22.49;100.00
33506;BME280;19843;51.040;13.782;2022-10-16T12:45:28;155643.03;;;22.46;100.00
33506;BME280;19843;51.040;13.782;2022-10-16T12:47:58;155614.44;;;22.35;100.00
33506;BME280;19843;51.040;13.782;2022-10-16T12:50:30;155656.00;;;22.51;100.00
33506;BME280;19843;51.040;13.782;2022-10-16T12:52:59;155648.19;;;22.48;100.00
33506;BME280;19843;51.040;13.782;2022-10-16T12:55:34;155628.75;;;22.41;100.00
33506;BME280;19843;51.040;13.782;2022-10-16T13:00:54;155767.75;;;22.95;100.00
33506;BME280;19843;51.040;13.782;2022-10-16T13:03:39;155774.28;;;22.97;100.00